<?xml version="1.0" encoding="UTF-8" ?>
<gpx version="1.1" xmlns:xsi="http://www.w3.org/2001/XMLSchema-instance" 
    xmlns="http://www.topografix.com/GPX/1/1" 
    xsi:schemaLocation="http://www.topografix.com/GPX/1/1 http://www.topografix.com/GPX/1/1/gpx.xsd" 
    creator="Openrunner - https://www.openrunner.com" >	<trk>
						<name>11266005-Balade Verte - Circuit prairie de la Seille - SO2</name>
						<trkseg>
					<trkpt lat="46.626270" lon="5.179340">
						<ele>181</ele>
						<time>2022-11-02T13:26:20Z</time>
					</trkpt>
					<trkpt lat="46.626280" lon="5.179880">
						<ele>180</ele>
						<time>2022-11-02T13:27:10Z</time>
					</trkpt>
					<trkpt lat="46.626290" lon="5.180770">
						<ele>180</ele>
						<time>2022-11-02T13:28:31Z</time>
					</trkpt>
					<trkpt lat="46.626340" lon="5.182880">
						<ele>182</ele>
						<time>2022-11-02T13:31:45Z</time>
					</trkpt>
					<trkpt lat="46.626710" lon="5.182950">
						<ele>182</ele>
						<time>2022-11-02T13:32:34Z</time>
					</trkpt>
					<trkpt lat="46.627220" lon="5.183080">
						<ele>182</ele>
						<time>2022-11-02T13:33:43Z</time>
					</trkpt>
					<trkpt lat="46.627300" lon="5.183110">
						<ele>182</ele>
						<time>2022-11-02T13:33:54Z</time>
					</trkpt>
					<trkpt lat="46.627990" lon="5.183410">
						<ele>181</ele>
						<time>2022-11-02T13:35:31Z</time>
					</trkpt>
					<trkpt lat="46.628720" lon="5.183740">
						<ele>179</ele>
						<time>2022-11-02T13:37:13Z</time>
					</trkpt>
					<trkpt lat="46.629170" lon="5.184050">
						<ele>179</ele>
						<time>2022-11-02T13:38:19Z</time>
					</trkpt>
					<trkpt lat="46.629060" lon="5.184380">
						<ele>179</ele>
						<time>2022-11-02T13:38:53Z</time>
					</trkpt>
					<trkpt lat="46.628910" lon="5.184920">
						<ele>179</ele>
						<time>2022-11-02T13:39:46Z</time>
					</trkpt>
					<trkpt lat="46.628870" lon="5.185200">
						<ele>180</ele>
						<time>2022-11-02T13:40:12Z</time>
					</trkpt>
					<trkpt lat="46.628850" lon="5.185470">
						<ele>180</ele>
						<time>2022-11-02T13:40:37Z</time>
					</trkpt>
					<trkpt lat="46.628840" lon="5.186260">
						<ele>181</ele>
						<time>2022-11-02T13:41:50Z</time>
					</trkpt>
					<trkpt lat="46.629390" lon="5.186330">
						<ele>179</ele>
						<time>2022-11-02T13:43:03Z</time>
					</trkpt>
					<trkpt lat="46.629880" lon="5.186420">
						<ele>177</ele>
						<time>2022-11-02T13:44:09Z</time>
					</trkpt>
					<trkpt lat="46.630050" lon="5.186430">
						<ele>177</ele>
						<time>2022-11-02T13:44:32Z</time>
					</trkpt>
					<trkpt lat="46.630450" lon="5.186320">
						<ele>176</ele>
						<time>2022-11-02T13:45:26Z</time>
					</trkpt>
					<trkpt lat="46.630550" lon="5.186330">
						<ele>176</ele>
						<time>2022-11-02T13:45:39Z</time>
					</trkpt>
					<trkpt lat="46.630590" lon="5.186490">
						<ele>176</ele>
						<time>2022-11-02T13:45:55Z</time>
					</trkpt>
					<trkpt lat="46.630580" lon="5.187060">
						<ele>177</ele>
						<time>2022-11-02T13:46:47Z</time>
					</trkpt>
					<trkpt lat="46.630610" lon="5.187410">
						<ele>177</ele>
						<time>2022-11-02T13:47:20Z</time>
					</trkpt>
					<trkpt lat="46.630700" lon="5.187870">
						<ele>177</ele>
						<time>2022-11-02T13:48:03Z</time>
					</trkpt>
					<trkpt lat="46.630710" lon="5.187960">
						<ele>177</ele>
						<time>2022-11-02T13:48:12Z</time>
					</trkpt>
					<trkpt lat="46.630710" lon="5.188040">
						<ele>177</ele>
						<time>2022-11-02T13:48:19Z</time>
					</trkpt>
					<trkpt lat="46.630690" lon="5.188120">
						<ele>177</ele>
						<time>2022-11-02T13:48:27Z</time>
					</trkpt>
					<trkpt lat="46.630520" lon="5.188450">
						<ele>177</ele>
						<time>2022-11-02T13:49:05Z</time>
					</trkpt>
					<trkpt lat="46.630420" lon="5.188870">
						<ele>177</ele>
						<time>2022-11-02T13:49:46Z</time>
					</trkpt>
					<trkpt lat="46.630430" lon="5.188930">
						<ele>177</ele>
						<time>2022-11-02T13:49:51Z</time>
					</trkpt>
					<trkpt lat="46.630470" lon="5.188990">
						<ele>177</ele>
						<time>2022-11-02T13:49:59Z</time>
					</trkpt>
					<trkpt lat="46.630520" lon="5.189040">
						<ele>177</ele>
						<time>2022-11-02T13:50:07Z</time>
					</trkpt>
					<trkpt lat="46.630980" lon="5.189120">
						<ele>177</ele>
						<time>2022-11-02T13:51:09Z</time>
					</trkpt>
					<trkpt lat="46.631050" lon="5.189120">
						<ele>177</ele>
						<time>2022-11-02T13:51:18Z</time>
					</trkpt>
					<trkpt lat="46.631120" lon="5.189110">
						<ele>177</ele>
						<time>2022-11-02T13:51:27Z</time>
					</trkpt>
					<trkpt lat="46.631180" lon="5.189070">
						<ele>177</ele>
						<time>2022-11-02T13:51:36Z</time>
					</trkpt>
					<trkpt lat="46.631320" lon="5.188930">
						<ele>176</ele>
						<time>2022-11-02T13:51:59Z</time>
					</trkpt>
					<trkpt lat="46.631430" lon="5.188840">
						<ele>176</ele>
						<time>2022-11-02T13:52:16Z</time>
					</trkpt>
					<trkpt lat="46.631530" lon="5.188800">
						<ele>176</ele>
						<time>2022-11-02T13:52:30Z</time>
					</trkpt>
					<trkpt lat="46.631630" lon="5.188800">
						<ele>176</ele>
						<time>2022-11-02T13:52:43Z</time>
					</trkpt>
					<trkpt lat="46.631730" lon="5.188830">
						<ele>176</ele>
						<time>2022-11-02T13:52:57Z</time>
					</trkpt>
					<trkpt lat="46.631830" lon="5.188870">
						<ele>175</ele>
						<time>2022-11-02T13:53:10Z</time>
					</trkpt>
					<trkpt lat="46.631910" lon="5.188940">
						<ele>175</ele>
						<time>2022-11-02T13:53:23Z</time>
					</trkpt>
					<trkpt lat="46.632060" lon="5.189130">
						<ele>175</ele>
						<time>2022-11-02T13:53:49Z</time>
					</trkpt>
					<trkpt lat="46.632120" lon="5.189180">
						<ele>175</ele>
						<time>2022-11-02T13:53:59Z</time>
					</trkpt>
					<trkpt lat="46.632300" lon="5.189050">
						<ele>175</ele>
						<time>2022-11-02T13:54:25Z</time>
					</trkpt>
					<trkpt lat="46.632460" lon="5.188990">
						<ele>174</ele>
						<time>2022-11-02T13:54:48Z</time>
					</trkpt>
					<trkpt lat="46.632710" lon="5.188950">
						<ele>175</ele>
						<time>2022-11-02T13:55:21Z</time>
					</trkpt>
					<trkpt lat="46.633140" lon="5.188950">
						<ele>176</ele>
						<time>2022-11-02T13:56:18Z</time>
					</trkpt>
					<trkpt lat="46.633200" lon="5.188970">
						<ele>177</ele>
						<time>2022-11-02T13:56:27Z</time>
					</trkpt>
					<trkpt lat="46.633290" lon="5.189030">
						<ele>177</ele>
						<time>2022-11-02T13:56:40Z</time>
					</trkpt>
					<trkpt lat="46.633370" lon="5.189150">
						<ele>177</ele>
						<time>2022-11-02T13:56:55Z</time>
					</trkpt>
					<trkpt lat="46.633430" lon="5.189300">
						<ele>177</ele>
						<time>2022-11-02T13:57:11Z</time>
					</trkpt>
					<trkpt lat="46.633480" lon="5.189510">
						<ele>177</ele>
						<time>2022-11-02T13:57:31Z</time>
					</trkpt>
					<trkpt lat="46.633510" lon="5.189790">
						<ele>177</ele>
						<time>2022-11-02T13:57:57Z</time>
					</trkpt>
					<trkpt lat="46.633550" lon="5.189940">
						<ele>176</ele>
						<time>2022-11-02T13:58:12Z</time>
					</trkpt>
					<trkpt lat="46.633630" lon="5.190170">
						<ele>176</ele>
						<time>2022-11-02T13:58:36Z</time>
					</trkpt>
					<trkpt lat="46.633690" lon="5.190320">
						<ele>176</ele>
						<time>2022-11-02T13:58:52Z</time>
					</trkpt>
					<trkpt lat="46.633710" lon="5.190510">
						<ele>176</ele>
						<time>2022-11-02T13:59:09Z</time>
					</trkpt>
					<trkpt lat="46.633720" lon="5.190660">
						<ele>176</ele>
						<time>2022-11-02T13:59:23Z</time>
					</trkpt>
					<trkpt lat="46.633720" lon="5.190870">
						<ele>177</ele>
						<time>2022-11-02T13:59:42Z</time>
					</trkpt>
					<trkpt lat="46.633690" lon="5.191160">
						<ele>176</ele>
						<time>2022-11-02T14:00:09Z</time>
					</trkpt>
					<trkpt lat="46.633690" lon="5.191250">
						<ele>176</ele>
						<time>2022-11-02T14:00:18Z</time>
					</trkpt>
					<trkpt lat="46.633710" lon="5.191380">
						<ele>176</ele>
						<time>2022-11-02T14:00:30Z</time>
					</trkpt>
					<trkpt lat="46.633840" lon="5.191610">
						<ele>176</ele>
						<time>2022-11-02T14:00:57Z</time>
					</trkpt>
					<trkpt lat="46.633910" lon="5.191710">
						<ele>176</ele>
						<time>2022-11-02T14:01:10Z</time>
					</trkpt>
					<trkpt lat="46.634120" lon="5.191940">
						<ele>175</ele>
						<time>2022-11-02T14:01:45Z</time>
					</trkpt>
					<trkpt lat="46.634570" lon="5.192280">
						<ele>175</ele>
						<time>2022-11-02T14:02:53Z</time>
					</trkpt>
					<trkpt lat="46.634690" lon="5.192330">
						<ele>175</ele>
						<time>2022-11-02T14:03:09Z</time>
					</trkpt>
					<trkpt lat="46.634790" lon="5.192350">
						<ele>175</ele>
						<time>2022-11-02T14:03:23Z</time>
					</trkpt>
					<trkpt lat="46.634840" lon="5.192340">
						<ele>175</ele>
						<time>2022-11-02T14:03:30Z</time>
					</trkpt>
					<trkpt lat="46.635640" lon="5.191580">
						<ele>174</ele>
						<time>2022-11-02T14:05:37Z</time>
					</trkpt>
					<trkpt lat="46.636020" lon="5.191150">
						<ele>175</ele>
						<time>2022-11-02T14:06:41Z</time>
					</trkpt>
					<trkpt lat="46.636930" lon="5.190530">
						<ele>175</ele>
						<time>2022-11-02T14:08:55Z</time>
					</trkpt>
					<trkpt lat="46.637170" lon="5.190340">
						<ele>175</ele>
						<time>2022-11-02T14:09:32Z</time>
					</trkpt>
					<trkpt lat="46.637700" lon="5.189860">
						<ele>176</ele>
						<time>2022-11-02T14:10:55Z</time>
					</trkpt>
					<trkpt lat="46.637830" lon="5.189720">
						<ele>176</ele>
						<time>2022-11-02T14:11:17Z</time>
					</trkpt>
					<trkpt lat="46.637910" lon="5.189630">
						<ele>176</ele>
						<time>2022-11-02T14:11:30Z</time>
					</trkpt>
					<trkpt lat="46.638080" lon="5.189390">
						<ele>177</ele>
						<time>2022-11-02T14:12:02Z</time>
					</trkpt>
					<trkpt lat="46.638200" lon="5.189100">
						<ele>177</ele>
						<time>2022-11-02T14:12:33Z</time>
					</trkpt>
					<trkpt lat="46.638230" lon="5.188950">
						<ele>177</ele>
						<time>2022-11-02T14:12:47Z</time>
					</trkpt>
					<trkpt lat="46.638260" lon="5.188780">
						<ele>178</ele>
						<time>2022-11-02T14:13:03Z</time>
					</trkpt>
					<trkpt lat="46.638280" lon="5.188330">
						<ele>179</ele>
						<time>2022-11-02T14:13:45Z</time>
					</trkpt>
					<trkpt lat="46.638280" lon="5.187950">
						<ele>179</ele>
						<time>2022-11-02T14:14:19Z</time>
					</trkpt>
					<trkpt lat="46.638270" lon="5.187730">
						<ele>179</ele>
						<time>2022-11-02T14:14:40Z</time>
					</trkpt>
					<trkpt lat="46.638230" lon="5.187450">
						<ele>179</ele>
						<time>2022-11-02T14:15:06Z</time>
					</trkpt>
					<trkpt lat="46.638130" lon="5.187040">
						<ele>178</ele>
						<time>2022-11-02T14:15:46Z</time>
					</trkpt>
					<trkpt lat="46.637970" lon="5.186520">
						<ele>177</ele>
						<time>2022-11-02T14:16:38Z</time>
					</trkpt>
					<trkpt lat="46.637910" lon="5.186350">
						<ele>177</ele>
						<time>2022-11-02T14:16:55Z</time>
					</trkpt>
					<trkpt lat="46.637720" lon="5.186040">
						<ele>177</ele>
						<time>2022-11-02T14:17:33Z</time>
					</trkpt>
					<trkpt lat="46.637650" lon="5.185910">
						<ele>178</ele>
						<time>2022-11-02T14:17:49Z</time>
					</trkpt>
					<trkpt lat="46.637590" lon="5.185650">
						<ele>177</ele>
						<time>2022-11-02T14:18:14Z</time>
					</trkpt>
					<trkpt lat="46.637550" lon="5.185330">
						<ele>177</ele>
						<time>2022-11-02T14:18:44Z</time>
					</trkpt>
					<trkpt lat="46.637520" lon="5.185220">
						<ele>177</ele>
						<time>2022-11-02T14:18:54Z</time>
					</trkpt>
					<trkpt lat="46.637460" lon="5.185040">
						<ele>176</ele>
						<time>2022-11-02T14:19:13Z</time>
					</trkpt>
					<trkpt lat="46.637300" lon="5.184690">
						<ele>176</ele>
						<time>2022-11-02T14:19:51Z</time>
					</trkpt>
					<trkpt lat="46.637190" lon="5.184140">
						<ele>176</ele>
						<time>2022-11-02T14:20:44Z</time>
					</trkpt>
					<trkpt lat="46.637140" lon="5.183690">
						<ele>176</ele>
						<time>2022-11-02T14:21:25Z</time>
					</trkpt>
					<trkpt lat="46.637130" lon="5.183510">
						<ele>176</ele>
						<time>2022-11-02T14:21:42Z</time>
					</trkpt>
					<trkpt lat="46.637140" lon="5.183250">
						<ele>175</ele>
						<time>2022-11-02T14:22:06Z</time>
					</trkpt>
					<trkpt lat="46.637170" lon="5.183050">
						<ele>175</ele>
						<time>2022-11-02T14:22:25Z</time>
					</trkpt>
					<trkpt lat="46.637170" lon="5.182910">
						<ele>175</ele>
						<time>2022-11-02T14:22:37Z</time>
					</trkpt>
					<trkpt lat="46.637170" lon="5.182770">
						<ele>175</ele>
						<time>2022-11-02T14:22:50Z</time>
					</trkpt>
					<trkpt lat="46.637150" lon="5.182620">
						<ele>175</ele>
						<time>2022-11-02T14:23:04Z</time>
					</trkpt>
					<trkpt lat="46.637110" lon="5.182370">
						<ele>175</ele>
						<time>2022-11-02T14:23:28Z</time>
					</trkpt>
					<trkpt lat="46.637000" lon="5.181880">
						<ele>175</ele>
						<time>2022-11-02T14:24:15Z</time>
					</trkpt>
					<trkpt lat="46.636980" lon="5.181650">
						<ele>176</ele>
						<time>2022-11-02T14:24:36Z</time>
					</trkpt>
					<trkpt lat="46.636930" lon="5.181090">
						<ele>176</ele>
						<time>2022-11-02T14:25:28Z</time>
					</trkpt>
					<trkpt lat="46.636930" lon="5.180860">
						<ele>176</ele>
						<time>2022-11-02T14:25:49Z</time>
					</trkpt>
					<trkpt lat="46.636970" lon="5.180580">
						<ele>176</ele>
						<time>2022-11-02T14:26:15Z</time>
					</trkpt>
					<trkpt lat="46.637130" lon="5.179940">
						<ele>176</ele>
						<time>2022-11-02T14:27:18Z</time>
					</trkpt>
					<trkpt lat="46.637280" lon="5.179180">
						<ele>176</ele>
						<time>2022-11-02T14:28:30Z</time>
					</trkpt>
					<trkpt lat="46.637420" lon="5.178760">
						<ele>176</ele>
						<time>2022-11-02T14:29:13Z</time>
					</trkpt>
					<trkpt lat="46.637430" lon="5.178650">
						<ele>175</ele>
						<time>2022-11-02T14:29:23Z</time>
					</trkpt>
					<trkpt lat="46.637420" lon="5.178620">
						<ele>175</ele>
						<time>2022-11-02T14:29:26Z</time>
					</trkpt>
					<trkpt lat="46.637320" lon="5.178540">
						<ele>175</ele>
						<time>2022-11-02T14:29:41Z</time>
					</trkpt>
					<trkpt lat="46.637230" lon="5.178420">
						<ele>175</ele>
						<time>2022-11-02T14:29:58Z</time>
					</trkpt>
					<trkpt lat="46.637150" lon="5.177960">
						<ele>175</ele>
						<time>2022-11-02T14:30:41Z</time>
					</trkpt>
					<trkpt lat="46.637120" lon="5.177640">
						<ele>175</ele>
						<time>2022-11-02T14:31:11Z</time>
					</trkpt>
					<trkpt lat="46.636790" lon="5.177580">
						<ele>174</ele>
						<time>2022-11-02T14:31:55Z</time>
					</trkpt>
					<trkpt lat="46.636810" lon="5.177210">
						<ele>173</ele>
						<time>2022-11-02T14:32:29Z</time>
					</trkpt>
					<trkpt lat="46.636810" lon="5.176900">
						<ele>173</ele>
						<time>2022-11-02T14:32:58Z</time>
					</trkpt>
					<trkpt lat="46.636780" lon="5.176320">
						<ele>174</ele>
						<time>2022-11-02T14:33:51Z</time>
					</trkpt>
					<trkpt lat="46.636750" lon="5.176010">
						<ele>175</ele>
						<time>2022-11-02T14:34:20Z</time>
					</trkpt>
					<trkpt lat="46.636710" lon="5.175790">
						<ele>175</ele>
						<time>2022-11-02T14:34:40Z</time>
					</trkpt>
					<trkpt lat="46.636630" lon="5.175560">
						<ele>175</ele>
						<time>2022-11-02T14:35:04Z</time>
					</trkpt>
					<trkpt lat="46.636510" lon="5.175250">
						<ele>176</ele>
						<time>2022-11-02T14:35:37Z</time>
					</trkpt>
					<trkpt lat="46.636200" lon="5.174630">
						<ele>176</ele>
						<time>2022-11-02T14:36:47Z</time>
					</trkpt>
					<trkpt lat="46.636150" lon="5.174490">
						<ele>176</ele>
						<time>2022-11-02T14:37:01Z</time>
					</trkpt>
					<trkpt lat="46.636130" lon="5.174300">
						<ele>175</ele>
						<time>2022-11-02T14:37:19Z</time>
					</trkpt>
					<trkpt lat="46.636120" lon="5.174190">
						<ele>175</ele>
						<time>2022-11-02T14:37:29Z</time>
					</trkpt>
					<trkpt lat="46.636130" lon="5.174060">
						<ele>175</ele>
						<time>2022-11-02T14:37:41Z</time>
					</trkpt>
					<trkpt lat="46.636160" lon="5.173940">
						<ele>176</ele>
						<time>2022-11-02T14:37:53Z</time>
					</trkpt>
					<trkpt lat="46.636220" lon="5.173810">
						<ele>176</ele>
						<time>2022-11-02T14:38:07Z</time>
					</trkpt>
					<trkpt lat="46.636330" lon="5.173680">
						<ele>176</ele>
						<time>2022-11-02T14:38:26Z</time>
					</trkpt>
					<trkpt lat="46.636450" lon="5.173610">
						<ele>176</ele>
						<time>2022-11-02T14:38:43Z</time>
					</trkpt>
					<trkpt lat="46.636580" lon="5.173470">
						<ele>176</ele>
						<time>2022-11-02T14:39:05Z</time>
					</trkpt>
					<trkpt lat="46.636670" lon="5.173300">
						<ele>176</ele>
						<time>2022-11-02T14:39:25Z</time>
					</trkpt>
					<trkpt lat="46.636800" lon="5.172990">
						<ele>175</ele>
						<time>2022-11-02T14:39:58Z</time>
					</trkpt>
					<trkpt lat="46.636950" lon="5.172720">
						<ele>175</ele>
						<time>2022-11-02T14:40:30Z</time>
					</trkpt>
					<trkpt lat="46.637020" lon="5.172470">
						<ele>175</ele>
						<time>2022-11-02T14:40:54Z</time>
					</trkpt>
					<trkpt lat="46.637200" lon="5.171610">
						<ele>175</ele>
						<time>2022-11-02T14:42:17Z</time>
					</trkpt>
					<trkpt lat="46.637260" lon="5.171050">
						<ele>175</ele>
						<time>2022-11-02T14:43:09Z</time>
					</trkpt>
					<trkpt lat="46.637270" lon="5.170720">
						<ele>175</ele>
						<time>2022-11-02T14:43:39Z</time>
					</trkpt>
					<trkpt lat="46.637310" lon="5.170540">
						<ele>175</ele>
						<time>2022-11-02T14:43:56Z</time>
					</trkpt>
					<trkpt lat="46.637810" lon="5.169040">
						<ele>176</ele>
						<time>2022-11-02T14:46:29Z</time>
					</trkpt>
					<trkpt lat="46.637900" lon="5.168820">
						<ele>176</ele>
						<time>2022-11-02T14:46:53Z</time>
					</trkpt>
					<trkpt lat="46.638190" lon="5.168290">
						<ele>175</ele>
						<time>2022-11-02T14:47:55Z</time>
					</trkpt>
					<trkpt lat="46.638330" lon="5.168050">
						<ele>175</ele>
						<time>2022-11-02T14:48:24Z</time>
					</trkpt>
					<trkpt lat="46.638550" lon="5.167780">
						<ele>175</ele>
						<time>2022-11-02T14:49:02Z</time>
					</trkpt>
					<trkpt lat="46.638840" lon="5.167370">
						<ele>175</ele>
						<time>2022-11-02T14:49:56Z</time>
					</trkpt>
					<trkpt lat="46.638920" lon="5.167230">
						<ele>175</ele>
						<time>2022-11-02T14:50:13Z</time>
					</trkpt>
					<trkpt lat="46.639000" lon="5.166970">
						<ele>175</ele>
						<time>2022-11-02T14:50:39Z</time>
					</trkpt>
					<trkpt lat="46.639060" lon="5.166700">
						<ele>176</ele>
						<time>2022-11-02T14:51:05Z</time>
					</trkpt>
					<trkpt lat="46.639080" lon="5.166350">
						<ele>175</ele>
						<time>2022-11-02T14:51:37Z</time>
					</trkpt>
					<trkpt lat="46.639080" lon="5.165950">
						<ele>175</ele>
						<time>2022-11-02T14:52:13Z</time>
					</trkpt>
					<trkpt lat="46.639060" lon="5.165760">
						<ele>175</ele>
						<time>2022-11-02T14:52:31Z</time>
					</trkpt>
					<trkpt lat="46.639010" lon="5.165520">
						<ele>176</ele>
						<time>2022-11-02T14:52:54Z</time>
					</trkpt>
					<trkpt lat="46.638950" lon="5.165330">
						<ele>176</ele>
						<time>2022-11-02T14:53:13Z</time>
					</trkpt>
					<trkpt lat="46.638880" lon="5.165170">
						<ele>177</ele>
						<time>2022-11-02T14:53:31Z</time>
					</trkpt>
					<trkpt lat="46.638790" lon="5.165050">
						<ele>177</ele>
						<time>2022-11-02T14:53:47Z</time>
					</trkpt>
					<trkpt lat="46.638690" lon="5.164960">
						<ele>177</ele>
						<time>2022-11-02T14:54:03Z</time>
					</trkpt>
					<trkpt lat="46.638490" lon="5.164830">
						<ele>177</ele>
						<time>2022-11-02T14:54:32Z</time>
					</trkpt>
					<trkpt lat="46.638280" lon="5.164650">
						<ele>176</ele>
						<time>2022-11-02T14:55:04Z</time>
					</trkpt>
					<trkpt lat="46.638130" lon="5.164500">
						<ele>176</ele>
						<time>2022-11-02T14:55:29Z</time>
					</trkpt>
					<trkpt lat="46.638050" lon="5.164360">
						<ele>176</ele>
						<time>2022-11-02T14:55:45Z</time>
					</trkpt>
					<trkpt lat="46.637940" lon="5.164110">
						<ele>175</ele>
						<time>2022-11-02T14:56:12Z</time>
					</trkpt>
					<trkpt lat="46.637890" lon="5.163960">
						<ele>175</ele>
						<time>2022-11-02T14:56:28Z</time>
					</trkpt>
					<trkpt lat="46.637810" lon="5.163650">
						<ele>175</ele>
						<time>2022-11-02T14:56:58Z</time>
					</trkpt>
					<trkpt lat="46.637510" lon="5.162820">
						<ele>175</ele>
						<time>2022-11-02T14:58:24Z</time>
					</trkpt>
					<trkpt lat="46.637380" lon="5.162570">
						<ele>175</ele>
						<time>2022-11-02T14:58:53Z</time>
					</trkpt>
					<trkpt lat="46.637210" lon="5.162330">
						<ele>175</ele>
						<time>2022-11-02T14:59:24Z</time>
					</trkpt>
					<trkpt lat="46.636730" lon="5.161840">
						<ele>175</ele>
						<time>2022-11-02T15:00:43Z</time>
					</trkpt>
					<trkpt lat="46.636600" lon="5.161750">
						<ele>175</ele>
						<time>2022-11-02T15:01:02Z</time>
					</trkpt>
					<trkpt lat="46.636430" lon="5.161740">
						<ele>175</ele>
						<time>2022-11-02T15:01:25Z</time>
					</trkpt>
					<trkpt lat="46.636300" lon="5.161750">
						<ele>175</ele>
						<time>2022-11-02T15:01:42Z</time>
					</trkpt>
					<trkpt lat="46.636210" lon="5.161810">
						<ele>175</ele>
						<time>2022-11-02T15:01:55Z</time>
					</trkpt>
					<trkpt lat="46.636100" lon="5.161930">
						<ele>175</ele>
						<time>2022-11-02T15:02:13Z</time>
					</trkpt>
					<trkpt lat="46.635830" lon="5.162640">
						<ele>175</ele>
						<time>2022-11-02T15:03:28Z</time>
					</trkpt>
					<trkpt lat="46.635680" lon="5.162950">
						<ele>174</ele>
						<time>2022-11-02T15:04:03Z</time>
					</trkpt>
					<trkpt lat="46.635490" lon="5.163220">
						<ele>174</ele>
						<time>2022-11-02T15:04:38Z</time>
					</trkpt>
					<trkpt lat="46.635170" lon="5.163480">
						<ele>175</ele>
						<time>2022-11-02T15:05:27Z</time>
					</trkpt>
					<trkpt lat="46.634760" lon="5.163690">
						<ele>175</ele>
						<time>2022-11-02T15:06:25Z</time>
					</trkpt>
					<trkpt lat="46.634460" lon="5.163760">
						<ele>174</ele>
						<time>2022-11-02T15:07:05Z</time>
					</trkpt>
					<trkpt lat="46.634300" lon="5.163780">
						<ele>174</ele>
						<time>2022-11-02T15:07:27Z</time>
					</trkpt>
					<trkpt lat="46.634080" lon="5.163700">
						<ele>175</ele>
						<time>2022-11-02T15:07:57Z</time>
					</trkpt>
					<trkpt lat="46.633720" lon="5.163510">
						<ele>175</ele>
						<time>2022-11-02T15:08:48Z</time>
					</trkpt>
					<trkpt lat="46.633550" lon="5.163360">
						<ele>176</ele>
						<time>2022-11-02T15:09:15Z</time>
					</trkpt>
					<trkpt lat="46.633220" lon="5.162750">
						<ele>176</ele>
						<time>2022-11-02T15:10:26Z</time>
					</trkpt>
					<trkpt lat="46.633140" lon="5.162510">
						<ele>175</ele>
						<time>2022-11-02T15:10:50Z</time>
					</trkpt>
					<trkpt lat="46.633100" lon="5.162420">
						<ele>176</ele>
						<time>2022-11-02T15:11:00Z</time>
					</trkpt>
					<trkpt lat="46.632790" lon="5.162170">
						<ele>176</ele>
						<time>2022-11-02T15:11:47Z</time>
					</trkpt>
					<trkpt lat="46.632380" lon="5.162050">
						<ele>178</ele>
						<time>2022-11-02T15:12:43Z</time>
					</trkpt>
					<trkpt lat="46.632200" lon="5.161960">
						<ele>178</ele>
						<time>2022-11-02T15:13:09Z</time>
					</trkpt>
					<trkpt lat="46.632110" lon="5.161890">
						<ele>179</ele>
						<time>2022-11-02T15:13:22Z</time>
					</trkpt>
					<trkpt lat="46.631630" lon="5.163740">
						<ele>177</ele>
						<time>2022-11-02T15:16:24Z</time>
					</trkpt>
					<trkpt lat="46.631390" lon="5.164760">
						<ele>177</ele>
						<time>2022-11-02T15:18:02Z</time>
					</trkpt>
					<trkpt lat="46.631310" lon="5.165320">
						<ele>177</ele>
						<time>2022-11-02T15:18:55Z</time>
					</trkpt>
					<trkpt lat="46.631270" lon="5.165720">
						<ele>177</ele>
						<time>2022-11-02T15:19:32Z</time>
					</trkpt>
					<trkpt lat="46.631270" lon="5.165970">
						<ele>177</ele>
						<time>2022-11-02T15:19:55Z</time>
					</trkpt>
					<trkpt lat="46.631290" lon="5.166430">
						<ele>177</ele>
						<time>2022-11-02T15:20:37Z</time>
					</trkpt>
					<trkpt lat="46.631330" lon="5.166780">
						<ele>176</ele>
						<time>2022-11-02T15:21:09Z</time>
					</trkpt>
					<trkpt lat="46.631360" lon="5.167080">
						<ele>176</ele>
						<time>2022-11-02T15:21:37Z</time>
					</trkpt>
					<trkpt lat="46.631540" lon="5.168250">
						<ele>175</ele>
						<time>2022-11-02T15:23:27Z</time>
					</trkpt>
					<trkpt lat="46.631590" lon="5.168840">
						<ele>176</ele>
						<time>2022-11-02T15:24:22Z</time>
					</trkpt>
					<trkpt lat="46.631580" lon="5.169480">
						<ele>176</ele>
						<time>2022-11-02T15:25:20Z</time>
					</trkpt>
					<trkpt lat="46.631550" lon="5.170000">
						<ele>175</ele>
						<time>2022-11-02T15:26:08Z</time>
					</trkpt>
					<trkpt lat="46.631530" lon="5.170470">
						<ele>175</ele>
						<time>2022-11-02T15:26:51Z</time>
					</trkpt>
					<trkpt lat="46.631550" lon="5.171080">
						<ele>175</ele>
						<time>2022-11-02T15:27:47Z</time>
					</trkpt>
					<trkpt lat="46.631550" lon="5.171610">
						<ele>175</ele>
						<time>2022-11-02T15:28:36Z</time>
					</trkpt>
					<trkpt lat="46.631480" lon="5.173330">
						<ele>176</ele>
						<time>2022-11-02T15:31:14Z</time>
					</trkpt>
					<trkpt lat="46.631430" lon="5.174310">
						<ele>176</ele>
						<time>2022-11-02T15:32:44Z</time>
					</trkpt>
					<trkpt lat="46.631410" lon="5.174510">
						<ele>176</ele>
						<time>2022-11-02T15:33:02Z</time>
					</trkpt>
					<trkpt lat="46.631270" lon="5.175480">
						<ele>176</ele>
						<time>2022-11-02T15:34:33Z</time>
					</trkpt>
					<trkpt lat="46.631220" lon="5.175680">
						<ele>176</ele>
						<time>2022-11-02T15:34:53Z</time>
					</trkpt>
					<trkpt lat="46.631170" lon="5.175810">
						<ele>177</ele>
						<time>2022-11-02T15:35:06Z</time>
					</trkpt>
					<trkpt lat="46.631160" lon="5.175980">
						<ele>177</ele>
						<time>2022-11-02T15:35:22Z</time>
					</trkpt>
					<trkpt lat="46.631200" lon="5.175990">
						<ele>177</ele>
						<time>2022-11-02T15:35:27Z</time>
					</trkpt>
					<trkpt lat="46.631100" lon="5.176530">
						<ele>178</ele>
						<time>2022-11-02T15:36:18Z</time>
					</trkpt>
					<trkpt lat="46.631020" lon="5.177030">
						<ele>178</ele>
						<time>2022-11-02T15:37:06Z</time>
					</trkpt>
					<trkpt lat="46.630930" lon="5.177740">
						<ele>178</ele>
						<time>2022-11-02T15:38:12Z</time>
					</trkpt>
					<trkpt lat="46.630760" lon="5.179400">
						<ele>178</ele>
						<time>2022-11-02T15:40:45Z</time>
					</trkpt>
					<trkpt lat="46.630600" lon="5.180200">
						<ele>177</ele>
						<time>2022-11-02T15:42:02Z</time>
					</trkpt>
					<trkpt lat="46.630440" lon="5.180650">
						<ele>177</ele>
						<time>2022-11-02T15:42:48Z</time>
					</trkpt>
					<trkpt lat="46.630160" lon="5.181610">
						<ele>178</ele>
						<time>2022-11-02T15:44:24Z</time>
					</trkpt>
					<trkpt lat="46.630040" lon="5.181940">
						<ele>178</ele>
						<time>2022-11-02T15:44:58Z</time>
					</trkpt>
					<trkpt lat="46.629950" lon="5.182090">
						<ele>179</ele>
						<time>2022-11-02T15:45:16Z</time>
					</trkpt>
					<trkpt lat="46.629560" lon="5.181790">
						<ele>179</ele>
						<time>2022-11-02T15:46:15Z</time>
					</trkpt>
					<trkpt lat="46.629310" lon="5.181590">
						<ele>180</ele>
						<time>2022-11-02T15:46:53Z</time>
					</trkpt>
					<trkpt lat="46.628230" lon="5.180780">
						<ele>180</ele>
						<time>2022-11-02T15:49:35Z</time>
					</trkpt>
					<trkpt lat="46.627610" lon="5.180310">
						<ele>181</ele>
						<time>2022-11-02T15:51:09Z</time>
					</trkpt>
					<trkpt lat="46.626340" lon="5.179350">
						<ele>181</ele>
						<time>2022-11-02T15:54:20Z</time>
					</trkpt>
					<trkpt lat="46.626270" lon="5.179340">
						<ele>181</ele>
						<time>2022-11-02T15:54:29Z</time>
					</trkpt>
					</trkseg>
				</trk>
			</gpx>